sensor_id;sensor_type;location;lat;lon;timestamp;temperature;humidity
18950;DHT22;9608;49.288;8.130;2023-03-22T00:00:07;10.70;99.90
18950;DHT22;9608;49.288;8.130;2023-03-22T00:02:37;10.70;99.90
18950;DHT22;9608;49.288;8.130;2023-03-22T00:05:06;10.80;99.90
18950;DHT22;9608;49.288;8.130;2023-03-22T00:07:33;10.80;99.90
18950;DHT22;9608;49.288;8.130;2023-03-22T00:10:00;10.90;99.90
18950;DHT22;9608;49.288;8.130;2023-03-22T00:12:26;10.90;99.90
18950;DHT22;9608;49.288;8.130;2023-03-22T00:14:53;10.90;99.90
18950;DHT22;9608;49.288;8.130;2023-03-22T00:17:20;11.00;99.90
18950;DHT22;9608;49.288;8.130;2023-03-22T00:19:47;10.80;99.90
18950;DHT22;9608;49.288;8.130;2023-03-22T00:22:15;10.70;99.90
18950;DHT22;9608;49.288;8.130;2023-03-22T00:24:43;10.70;99.90
18950;DHT22;9608;49.288;8.130;2023-03-22T00:27:09;10.60;99.90
18950;DHT22;9608;49.288;8.130;2023-03-22T00:29:36;10.50;99.90
18950;DHT22;9608;49.288;8.130;2023-03-22T00:32:03;10.40;99.90
18950;DHT22;9608;49.288;8.130;2023-03-22T00:34:30;10.40;99.90
18950;DHT22;9608;49.288;8.130;2023-03-22T00:36:57;10.30;99.90
18950;DHT22;9608;49.288;8.130;2023-03-22T00:39:25;10.20;99.90
18950;DHT22;9608;49.288;8.130;2023-03-22T00:41:52;10.20;99.90
18950;DHT22;9608;49.288;8.130;2023-03-22T00:44:19;10.20;99.90
18950;DHT22;9608;49.288;8.130;2023-03-22T00:46:45;10.10;99.90
18950;DHT22;9608;49.288;8.130;2023-03-22T00:49:12;10.10;99.90
18950;DHT22;9608;49.288;8.130;2023-03-22T00:51:39;10.10;99.90
18950;DHT22;9608;49.288;8.130;2023-03-22T00:54:06;10.00;99.90
18950;DHT22;9608;49.288;8.130;2023-03-22T00:56:34;10.00;99.90
18950;DHT22;9608;49.288;8.130;2023-03-22T00:59:01;10.00;99.90
18950;DHT22;9608;49.288;8.130;2023-03-22T01:01:28;9.90;99.90
18950;DHT22;9608;49.288;8.130;2023-03-22T01:03:55;9.80;99.90
18950;DHT22;9608;49.288;8.130;2023-03-22T01:06:22;9.80;99.90
18950;DHT22;9608;49.288;8.130;2023-03-22T01:08:49;9.80;99.90
18950;DHT22;9608;49.288;8.130;2023-03-22T01:11:16;9.70;99.90
18950;DHT22;9608;49.288;8.130;2023-03-22T01:13:44;9.60;99.90
18950;DHT22;9608;49.288;8.130;2023-03-22T01:16:12;9.50;99.90
18950;DHT22;9608;49.288;8.130;2023-03-22T01:18:39;9.50;99.90
18950;DHT22;9608;49.288;8.130;2023-03-22T01:21:06;9.50;99.90
18950;DHT22;9608;49.288;8.130;2023-03-22T01:23:33;9.40;99.90
18950;DHT22;9608;49.288;8.130;2023-03-22T01:26:00;9.30;99.90
18950;DHT22;9608;49.288;8.130;2023-03-22T01:28:27;9.30;99.90
18950;DHT22;9608;49.288;8.130;2023-03-22T01:30:55;9.10;99.90
18950;DHT22;9608;49.288;8.130;2023-03-22T01:33:25;9.10;99.90
18950;DHT22;9608;49.288;8.130;2023-03-22T01:35:52;9.00;99.90
18950;DHT22;9608;49.288;8.130;2023-03-22T01:38:19;9.00;99.90
18950;DHT22;9608;49.288;8.130;2023-03-22T01:40:46;8.90;99.90
18950;DHT22;9608;49.288;8.130;2023-03-22T01:43:14;9.00;99.90
18950;DHT22;9608;49.288;8.130;2023-03-22T01:45:43;8.80;99.90
18950;DHT22;9608;49.288;8.130;2023-03-22T01:48:22;8.80;99.90
18950;DHT22;9608;49.288;8.130;2023-03-22T01:50:59;8.80;99.90
18950;DHT22;9608;49.288;8.130;2023-03-22T01:53:29;8.70;99.90
18950;DHT22;9608;49.288;8.130;2023-03-22T01:55:57;8.70;99.90
18950;DHT22;9608;49.288;8.130;2023-03-22T01:58:24;8.70;99.90
18950;DHT22;9608;49.288;8.130;2023-03-22T02:00:52;8.70;99.90
18950;DHT22;9608;49.288;8.130;2023-03-22T02:03:24;8.70;99.90
18950;DHT22;9608;49.288;8.130;2023-03-22T02:05:55;8.60;99.90
18950;DHT22;9608;49.288;8.130;2023-03-22T02:08:22;8.70;99.90
18950;DHT22;9608;49.288;8.130;2023-03-22T02:10:50;8.70;99.90
18950;DHT22;9608;49.288;8.130;2023-03-22T02:13:36;8.70;99.90
18950;DHT22;9608;49.288;8.130;2023-03-22T02:16:14;8.70;99.90
18950;DHT22;9608;49.288;8.130;2023-03-22T02:18:55;8.80;99.90
18950;DHT22;9608;49.288;8.130;2023-03-22T02:25:06;8.90;99.90
18950;DHT22;9608;49.288;8.130;2023-03-22T02:27:56;9.10;99.90
18950;DHT22;9608;49.288;8.130;2023-03-22T02:33:53;9.40;99.90
18950;DHT22;9608;49.288;8.130;2023-03-22T02:36:37;9.50;99.90
18950;DHT22;9608;49.288;8.130;2023-03-22T02:39:17;9.50;99.90
18950;DHT22;9608;49.288;8.130;2023-03-22T02:42:08;9.60;99.90
18950;DHT22;9608;49.288;8.130;2023-03-22T02:44:41;9.70;99.90
18950;DHT22;9608;49.288;8.130;2023-03-22T02:47:15;9.60;99.90
18950;DHT22;9608;49.288;8.130;2023-03-22T02:49:48;9.70;99.90
18950;DHT22;9608;49.288;8.130;2023-03-22T02:52:22;9.80;99.90
18950;DHT22;9608;49.288;8.130;2023-03-22T02:54:54;9.90;99.90
18950;DHT22;9608;49.288;8.130;2023-03-22T02:57:30;10.00;99.90
18950;DHT22;9608;49.288;8.130;2023-03-22T02:59:59;10.10;99.90
18950;DHT22;9608;49.288;8.130;2023-03-22T03:02:29;10.20;99.90
18950;DHT22;9608;49.288;8.130;2023-03-22T03:04:58;10.20;99.90
18950;DHT22;9608;49.288;8.130;2023-03-22T03:07:26;10.30;99.90
18950;DHT22;9608;49.288;8.130;2023-03-22T03:09:56;10.10;99.90
18950;DHT22;9608;49.288;8.130;2023-03-22T03:12:25;10.20;99.90
18950;DHT22;9608;49.288;8.130;2023-03-22T03:14:52;10.20;99.90
18950;DHT22;9608;49.288;8.130;2023-03-22T03:17:28;10.30;99.90
18950;DHT22;9608;49.288;8.130;2023-03-22T03:20:08;10.30;99.90
18950;DHT22;9608;49.288;8.130;2023-03-22T03:22:45;10.30;99.90
18950;DHT22;9608;49.288;8.130;2023-03-22T03:25:24;10.30;99.90
18950;DHT22;9608;49.288;8.130;2023-03-22T03:27:57;10.30;99.90
18950;DHT22;9608;49.288;8.130;2023-03-22T03:30:30;10.30;99.90
18950;DHT22;9608;49.288;8.130;2023-03-22T03:33:01;10.30;99.90
18950;DHT22;9608;49.288;8.130;2023-03-22T03:35:32;10.40;99.90
18950;DHT22;9608;49.288;8.130;2023-03-22T03:38:04;10.40;99.90
18950;DHT22;9608;49.288;8.130;2023-03-22T03:40:36;10.30;99.90
18950;DHT22;9608;49.288;8.130;2023-03-22T03:43:05;10.20;99.90
18950;DHT22;9608;49.288;8.130;2023-03-22T03:45:33;10.10;99.90
18950;DHT22;9608;49.288;8.130;2023-03-22T03:48:04;10.10;99.90
18950;DHT22;9608;49.288;8.130;2023-03-22T03:50:31;10.10;99.90
18950;DHT22;9608;49.288;8.130;2023-03-22T03:52:58;10.10;99.90
18950;DHT22;9608;49.288;8.130;2023-03-22T03:55:27;10.00;99.90
18950;DHT22;9608;49.288;8.130;2023-03-22T03:57:55;9.90;99.90
18950;DHT22;9608;49.288;8.130;2023-03-22T04:00:22;9.80;99.90
18950;DHT22;9608;49.288;8.130;2023-03-22T04:02:49;9.70;99.90
18950;DHT22;9608;49.288;8.130;2023-03-22T04:05:16;9.60;99.90
18950;DHT22;9608;49.288;8.130;2023-03-22T04:07:42;9.40;99.90
18950;DHT22;9608;49.288;8.130;2023-03-22T04:10:09;9.30;99.90
18950;DHT22;9608;49.288;8.130;2023-03-22T04:12:36;9.20;99.90
18950;DHT22;9608;49.288;8.130;2023-03-22T04:15:05;9.10;99.90
18950;DHT22;9608;49.288;8.130;2023-03-22T04:17:32;9.00;99.90
18950;DHT22;9608;49.288;8.130;2023-03-22T04:19:59;8.90;99.90
18950;DHT22;9608;49.288;8.130;2023-03-22T04:22:27;8.70;99.90
18950;DHT22;9608;49.288;8.130;2023-03-22T04:24:58;8.60;99.90
18950;DHT22;9608;49.288;8.130;2023-03-22T04:27:26;8.50;99.90
18950;DHT22;9608;49.288;8.130;2023-03-22T04:29:53;8.60;99.90
18950;DHT22;9608;49.288;8.130;2023-03-22T04:32:21;8.50;99.90
18950;DHT22;9608;49.288;8.130;2023-03-22T04:34:48;8.40;99.90
18950;DHT22;9608;49.288;8.130;2023-03-22T04:37:15;8.30;99.90
18950;DHT22;9608;49.288;8.130;2023-03-22T04:39:42;8.30;99.90
18950;DHT22;9608;49.288;8.130;2023-03-22T04:42:10;8.20;99.90
18950;DHT22;9608;49.288;8.130;2023-03-22T04:44:37;8.20;99.90
18950;DHT22;9608;49.288;8.130;2023-03-22T04:47:04;8.10;99.90
18950;DHT22;9608;49.288;8.130;2023-03-22T04:49:36;7.90;99.90
18950;DHT22;9608;49.288;8.130;2023-03-22T04:52:03;7.80;99.90
18950;DHT22;9608;49.288;8.130;2023-03-22T04:54:30;7.80;99.90
18950;DHT22;9608;49.288;8.130;2023-03-22T04:56:56;7.90;99.90
18950;DHT22;9608;49.288;8.130;2023-03-22T04:59:23;8.00;99.90
18950;DHT22;9608;49.288;8.130;2023-03-22T05:01:50;7.90;99.90
18950;DHT22;9608;49.288;8.130;2023-03-22T05:04:18;7.80;99.90
18950;DHT22;9608;49.288;8.130;2023-03-22T05:06:46;7.80;99.90
18950;DHT22;9608;49.288;8.130;2023-03-22T05:09:13;7.70;99.90
18950;DHT22;9608;49.288;8.130;2023-03-22T05:11:41;7.60;99.90
18950;DHT22;9608;49.288;8.130;2023-03-22T05:14:07;7.50;99.90
18950;DHT22;9608;49.288;8.130;2023-03-22T05:16:35;7.40;99.90
18950;DHT22;9608;49.288;8.130;2023-03-22T05:19:01;7.40;99.90
18950;DHT22;9608;49.288;8.130;2023-03-22T05:21:29;7.50;99.90
18950;DHT22;9608;49.288;8.130;2023-03-22T05:24:02;7.40;99.90
18950;DHT22;9608;49.288;8.130;2023-03-22T05:26:30;7.40;99.90
18950;DHT22;9608;49.288;8.130;2023-03-22T05:28:57;7.40;99.90
18950;DHT22;9608;49.288;8.130;2023-03-22T05:31:24;7.30;99.90
18950;DHT22;9608;49.288;8.130;2023-03-22T05:33:53;7.30;99.90
18950;DHT22;9608;49.288;8.130;2023-03-22T05:36:21;7.30;99.90
18950;DHT22;9608;49.288;8.130;2023-03-22T05:38:48;7.20;99.90
18950;DHT22;9608;49.288;8.130;2023-03-22T05:41:16;7.20;99.90
18950;DHT22;9608;49.288;8.130;2023-03-22T05:43:44;7.10;99.90
18950;DHT22;9608;49.288;8.130;2023-03-22T05:46:11;7.20;99.90
18950;DHT22;9608;49.288;8.130;2023-03-22T05:48:38;7.20;99.90
18950;DHT22;9608;49.288;8.130;2023-03-22T05:51:05;7.30;99.90
18950;DHT22;9608;49.288;8.130;2023-03-22T05:53:32;7.40;99.90
18950;DHT22;9608;49.288;8.130;2023-03-22T05:55:59;7.40;99.90
18950;DHT22;9608;49.288;8.130;2023-03-22T05:58:27;7.60;99.90
18950;DHT22;9608;49.288;8.130;2023-03-22T06:00:55;7.80;99.90
18950;DHT22;9608;49.288;8.130;2023-03-22T06:03:25;8.00;99.90
18950;DHT22;9608;49.288;8.130;2023-03-22T06:05:52;8.10;99.90
18950;DHT22;9608;49.288;8.130;2023-03-22T06:08:23;8.10;99.90
18950;DHT22;9608;49.288;8.130;2023-03-22T06:10:51;8.30;99.90
18950;DHT22;9608;49.288;8.130;2023-03-22T06:13:18;8.50;99.90
18950;DHT22;9608;49.288;8.130;2023-03-22T06:15:46;8.50;99.90
18950;DHT22;9608;49.288;8.130;2023-03-22T06:18:13;8.60;99.90
18950;DHT22;9608;49.288;8.130;2023-03-22T06:20:40;8.70;99.90
18950;DHT22;9608;49.288;8.130;2023-03-22T06:23:07;8.90;99.90
18950;DHT22;9608;49.288;8.130;2023-03-22T06:25:34;9.00;99.90
18950;DHT22;9608;49.288;8.130;2023-03-22T06:28:01;9.00;99.90
18950;DHT22;9608;49.288;8.130;2023-03-22T06:30:28;9.00;99.90
18950;DHT22;9608;49.288;8.130;2023-03-22T06:32:56;9.10;99.90
18950;DHT22;9608;49.288;8.130;2023-03-22T06:35:25;9.20;99.90
18950;DHT22;9608;49.288;8.130;2023-03-22T06:37:52;9.40;99.90
18950;DHT22;9608;49.288;8.130;2023-03-22T06:40:18;9.60;99.90
18950;DHT22;9608;49.288;8.130;2023-03-22T06:42:45;9.70;99.90
18950;DHT22;9608;49.288;8.130;2023-03-22T06:45:12;9.90;99.90
18950;DHT22;9608;49.288;8.130;2023-03-22T06:47:41;10.00;99.90
18950;DHT22;9608;49.288;8.130;2023-03-22T06:50:09;10.30;99.90
18950;DHT22;9608;49.288;8.130;2023-03-22T06:52:37;10.60;99.90
18950;DHT22;9608;49.288;8.130;2023-03-22T06:55:04;10.70;99.90
18950;DHT22;9608;49.288;8.130;2023-03-22T06:57:31;11.00;99.90
18950;DHT22;9608;49.288;8.130;2023-03-22T06:59:58;11.20;99.90
18950;DHT22;9608;49.288;8.130;2023-03-22T07:02:25;11.30;99.90
18950;DHT22;9608;49.288;8.130;2023-03-22T07:04:51;11.50;99.90
18950;DHT22;9608;49.288;8.130;2023-03-22T07:07:20;11.60;99.90
18950;DHT22;9608;49.288;8.130;2023-03-22T07:09:47;11.70;99.90
18950;DHT22;9608;49.288;8.130;2023-03-22T07:12:14;11.80;99.90
18950;DHT22;9608;49.288;8.130;2023-03-22T07:14:41;11.90;99.90
18950;DHT22;9608;49.288;8.130;2023-03-22T07:17:07;12.00;99.90
18950;DHT22;9608;49.288;8.130;2023-03-22T07:19:36;11.90;99.90
18950;DHT22;9608;49.288;8.130;2023-03-22T07:22:03;11.70;99.90
18950;DHT22;9608;49.288;8.130;2023-03-22T07:24:32;11.70;99.90
18950;DHT22;9608;49.288;8.130;2023-03-22T07:26:58;11.70;99.90
18950;DHT22;9608;49.288;8.130;2023-03-22T07:29:26;11.80;99.90
18950;DHT22;9608;49.288;8.130;2023-03-22T07:31:53;12.00;99.90
18950;DHT22;9608;49.288;8.130;2023-03-22T07:34:20;11.90;99.90
18950;DHT22;9608;49.288;8.130;2023-03-22T07:36:47;12.00;99.90
18950;DHT22;9608;49.288;8.130;2023-03-22T07:39:14;12.20;99.90
18950;DHT22;9608;49.288;8.130;2023-03-22T07:41:43;12.30;99.90
18950;DHT22;9608;49.288;8.130;2023-03-22T07:44:10;12.50;99.90
18950;DHT22;9608;49.288;8.130;2023-03-22T07:46:37;12.80;99.90
18950;DHT22;9608;49.288;8.130;2023-03-22T07:49:04;13.00;99.90
18950;DHT22;9608;49.288;8.130;2023-03-22T07:51:31;13.10;99.90
18950;DHT22;9608;49.288;8.130;2023-03-22T07:53:58;13.30;99.90
18950;DHT22;9608;49.288;8.130;2023-03-22T07:56:24;13.50;99.90
18950;DHT22;9608;49.288;8.130;2023-03-22T07:58:53;13.60;99.90
18950;DHT22;9608;49.288;8.130;2023-03-22T08:01:20;13.60;99.90
18950;DHT22;9608;49.288;8.130;2023-03-22T08:03:47;13.50;99.90
18950;DHT22;9608;49.288;8.130;2023-03-22T08:06:14;13.70;99.90
18950;DHT22;9608;49.288;8.130;2023-03-22T08:08:43;13.80;99.90
18950;DHT22;9608;49.288;8.130;2023-03-22T08:11:10;13.80;99.90
18950;DHT22;9608;49.288;8.130;2023-03-22T08:13:38;14.00;99.90
18950;DHT22;9608;49.288;8.130;2023-03-22T08:16:07;14.10;99.90
18950;DHT22;9608;49.288;8.130;2023-03-22T08:18:34;14.30;99.90
18950;DHT22;9608;49.288;8.130;2023-03-22T08:21:01;14.50;99.90
18950;DHT22;9608;49.288;8.130;2023-03-22T08:23:28;14.80;99.90
18950;DHT22;9608;49.288;8.130;2023-03-22T08:25:55;15.10;99.90
18950;DHT22;9608;49.288;8.130;2023-03-22T08:28:22;15.20;99.90
18950;DHT22;9608;49.288;8.130;2023-03-22T08:30:49;15.30;99.90
18950;DHT22;9608;49.288;8.130;2023-03-22T08:33:18;15.50;99.90
18950;DHT22;9608;49.288;8.130;2023-03-22T08:35:49;15.70;99.90
18950;DHT22;9608;49.288;8.130;2023-03-22T08:38:17;16.00;99.90
18950;DHT22;9608;49.288;8.130;2023-03-22T08:40:45;16.10;99.90
18950;DHT22;9608;49.288;8.130;2023-03-22T08:43:12;16.20;99.90
18950;DHT22;9608;49.288;8.130;2023-03-22T08:45:48;16.20;99.90
18950;DHT22;9608;49.288;8.130;2023-03-22T08:48:15;16.40;99.90
18950;DHT22;9608;49.288;8.130;2023-03-22T08:50:47;16.50;99.90
18950;DHT22;9608;49.288;8.130;2023-03-22T08:53:14;16.20;99.90
18950;DHT22;9608;49.288;8.130;2023-03-22T08:55:42;16.20;99.90
18950;DHT22;9608;49.288;8.130;2023-03-22T08:58:10;16.10;99.90
18950;DHT22;9608;49.288;8.130;2023-03-22T09:00:37;16.10;99.90
18950;DHT22;9608;49.288;8.130;2023-03-22T09:03:06;16.20;99.90
18950;DHT22;9608;49.288;8.130;2023-03-22T09:05:34;16.40;99.90
18950;DHT22;9608;49.288;8.130;2023-03-22T09:11:52;16.50;99.90
18950;DHT22;9608;49.288;8.130;2023-03-22T09:14:23;16.50;99.90
18950;DHT22;9608;49.288;8.130;2023-03-22T09:16:51;16.40;99.90
18950;DHT22;9608;49.288;8.130;2023-03-22T09:19:18;16.40;99.90
18950;DHT22;9608;49.288;8.130;2023-03-22T09:21:45;16.30;99.90
18950;DHT22;9608;49.288;8.130;2023-03-22T09:24:12;16.40;99.90
18950;DHT22;9608;49.288;8.130;2023-03-22T09:26:43;16.00;99.90
18950;DHT22;9608;49.288;8.130;2023-03-22T09:29:10;15.60;99.90
18950;DHT22;9608;49.288;8.130;2023-03-22T09:31:37;15.60;99.90
18950;DHT22;9608;49.288;8.130;2023-03-22T09:34:05;15.70;99.90
18950;DHT22;9608;49.288;8.130;2023-03-22T09:36:32;15.90;99.90
18950;DHT22;9608;49.288;8.130;2023-03-22T09:38:59;16.10;99.90
18950;DHT22;9608;49.288;8.130;2023-03-22T09:41:36;16.20;99.90
18950;DHT22;9608;49.288;8.130;2023-03-22T09:44:10;16.30;99.90
18950;DHT22;9608;49.288;8.130;2023-03-22T09:46:42;16.10;99.90
18950;DHT22;9608;49.288;8.130;2023-03-22T09:49:15;16.20;99.90
18950;DHT22;9608;49.288;8.130;2023-03-22T09:51:46;16.20;99.90
18950;DHT22;9608;49.288;8.130;2023-03-22T09:54:16;16.00;99.90
18950;DHT22;9608;49.288;8.130;2023-03-22T09:56:49;16.10;99.90
18950;DHT22;9608;49.288;8.130;2023-03-22T09:59:21;16.20;99.90
18950;DHT22;9608;49.288;8.130;2023-03-22T10:01:56;16.70;99.90
18950;DHT22;9608;49.288;8.130;2023-03-22T10:04:46;16.80;99.90
18950;DHT22;9608;49.288;8.130;2023-03-22T10:07:24;16.60;99.90
18950;DHT22;9608;49.288;8.130;2023-03-22T10:10:02;16.60;99.90
18950;DHT22;9608;49.288;8.130;2023-03-22T10:12:35;16.90;99.90
18950;DHT22;9608;49.288;8.130;2023-03-22T10:15:12;17.10;99.90
18950;DHT22;9608;49.288;8.130;2023-03-22T10:17:41;17.00;99.90
18950;DHT22;9608;49.288;8.130;2023-03-22T10:20:20;17.20;99.90
18950;DHT22;9608;49.288;8.130;2023-03-22T10:22:51;17.30;99.90
18950;DHT22;9608;49.288;8.130;2023-03-22T10:25:23;17.30;99.90
18950;DHT22;9608;49.288;8.130;2023-03-22T10:27:54;17.20;99.90
18950;DHT22;9608;49.288;8.130;2023-03-22T10:30:24;17.10;99.90
18950;DHT22;9608;49.288;8.130;2023-03-22T10:32:57;16.90;99.90
18950;DHT22;9608;49.288;8.130;2023-03-22T10:35:26;17.20;99.90
18950;DHT22;9608;49.288;8.130;2023-03-22T10:37:59;17.40;99.90
18950;DHT22;9608;49.288;8.130;2023-03-22T10:40:30;17.40;99.90
18950;DHT22;9608;49.288;8.130;2023-03-22T10:43:01;17.40;99.90
18950;DHT22;9608;49.288;8.130;2023-03-22T10:45:33;17.80;99.90
18950;DHT22;9608;49.288;8.130;2023-03-22T10:48:06;18.00;99.90
18950;DHT22;9608;49.288;8.130;2023-03-22T10:50:35;18.10;99.90
18950;DHT22;9608;49.288;8.130;2023-03-22T10:53:05;18.00;99.90
18950;DHT22;9608;49.288;8.130;2023-03-22T10:55:38;17.70;99.90
18950;DHT22;9608;49.288;8.130;2023-03-22T10:58:11;17.70;99.90
18950;DHT22;9608;49.288;8.130;2023-03-22T11:00:44;17.80;99.90
18950;DHT22;9608;49.288;8.130;2023-03-22T11:03:27;17.60;99.90
18950;DHT22;9608;49.288;8.130;2023-03-22T11:05:59;17.80;99.90
18950;DHT22;9608;49.288;8.130;2023-03-22T11:08:41;17.70;99.90
18950;DHT22;9608;49.288;8.130;2023-03-22T11:11:25;17.70;99.90
18950;DHT22;9608;49.288;8.130;2023-03-22T11:13:59;17.90;99.90
18950;DHT22;9608;49.288;8.130;2023-03-22T11:16:29;17.80;99.90
18950;DHT22;9608;49.288;8.130;2023-03-22T11:19:00;17.80;99.90
18950;DHT22;9608;49.288;8.130;2023-03-22T11:21:30;17.90;99.90
18950;DHT22;9608;49.288;8.130;2023-03-22T11:24:00;18.00;99.90
18950;DHT22;9608;49.288;8.130;2023-03-22T11:26:31;18.00;99.90
18950;DHT22;9608;49.288;8.130;2023-03-22T11:29:03;17.80;99.90
18950;DHT22;9608;49.288;8.130;2023-03-22T11:34:44;17.60;99.90
18950;DHT22;9608;49.288;8.130;2023-03-22T11:37:15;17.70;99.90
18950;DHT22;9608;49.288;8.130;2023-03-22T11:39:45;17.70;99.90
18950;DHT22;9608;49.288;8.130;2023-03-22T11:42:18;17.70;99.90
18950;DHT22;9608;49.288;8.130;2023-03-22T11:44:47;17.60;99.90
18950;DHT22;9608;49.288;8.130;2023-03-22T11:47:14;17.80;99.90
18950;DHT22;9608;49.288;8.130;2023-03-22T11:49:45;17.90;99.90
18950;DHT22;9608;49.288;8.130;2023-03-22T11:52:16;18.20;99.90
18950;DHT22;9608;49.288;8.130;2023-03-22T11:54:45;18.20;99.90
18950;DHT22;9608;49.288;8.130;2023-03-22T11:57:15;18.20;99.90
18950;DHT22;9608;49.288;8.130;2023-03-22T11:59:49;18.20;99.90
18950;DHT22;9608;49.288;8.130;2023-03-22T12:02:22;18.30;99.90
18950;DHT22;9608;49.288;8.130;2023-03-22T12:04:58;18.50;99.90
18950;DHT22;9608;49.288;8.130;2023-03-22T12:07:29;18.20;99.90
18950;DHT22;9608;49.288;8.130;2023-03-22T12:10:01;18.20;99.90
18950;DHT22;9608;49.288;8.130;2023-03-22T12:12:33;18.10;99.90
18950;DHT22;9608;49.288;8.130;2023-03-22T12:15:05;17.90;99.90
18950;DHT22;9608;49.288;8.130;2023-03-22T12:17:36;17.90;99.90
18950;DHT22;9608;49.288;8.130;2023-03-22T12:20:15;18.10;99.90
18950;DHT22;9608;49.288;8.130;2023-03-22T12:22:47;18.20;99.90
18950;DHT22;9608;49.288;8.130;2023-03-22T12:25:18;18.20;99.90
18950;DHT22;9608;49.288;8.130;2023-03-22T12:27:47;18.30;99.90
18950;DHT22;9608;49.288;8.130;2023-03-22T12:30:18;18.10;99.90
18950;DHT22;9608;49.288;8.130;2023-03-22T12:32:49;18.10;99.90
18950;DHT22;9608;49.288;8.130;2023-03-22T12:35:21;18.00;99.90
18950;DHT22;9608;49.288;8.130;2023-03-22T12:37:53;18.00;99.90
18950;DHT22;9608;49.288;8.130;2023-03-22T12:40:23;18.20;99.90
18950;DHT22;9608;49.288;8.130;2023-03-22T12:42:57;18.30;99.90
18950;DHT22;9608;49.288;8.130;2023-03-22T12:45:27;18.40;99.90
18950;DHT22;9608;49.288;8.130;2023-03-22T12:47:59;18.60;99.90
18950;DHT22;9608;49.288;8.130;2023-03-22T12:50:33;18.70;99.90
18950;DHT22;9608;49.288;8.130;2023-03-22T12:53:02;18.70;99.90
18950;DHT22;9608;49.288;8.130;2023-03-22T12:55:30;18.80;99.90
18950;DHT22;9608;49.288;8.130;2023-03-22T12:57:58;18.80;99.90
18950;DHT22;9608;49.288;8.130;2023-03-22T13:00:28;18.60;99.90
18950;DHT22;9608;49.288;8.130;2023-03-22T13:03:00;18.40;99.90
18950;DHT22;9608;49.288;8.130;2023-03-22T13:05:31;18.60;99.90
18950;DHT22;9608;49.288;8.130;2023-03-22T13:07:58;18.80;99.90
18950;DHT22;9608;49.288;8.130;2023-03-22T13:10:47;19.00;99.90
18950;DHT22;9608;49.288;8.130;2023-03-22T13:13:30;18.90;99.90
18950;DHT22;9608;49.288;8.130;2023-03-22T13:16:00;18.90;99.90
18950;DHT22;9608;49.288;8.130;2023-03-22T13:18:30;18.70;99.90
18950;DHT22;9608;49.288;8.130;2023-03-22T13:21:12;18.50;99.90
18950;DHT22;9608;49.288;8.130;2023-03-22T13:23:54;18.30;99.90
18950;DHT22;9608;49.288;8.130;2023-03-22T13:26:30;18.30;99.90
18950;DHT22;9608;49.288;8.130;2023-03-22T13:28:59;18.40;99.90
18950;DHT22;9608;49.288;8.130;2023-03-22T13:31:35;18.40;99.90
18950;DHT22;9608;49.288;8.130;2023-03-22T13:34:02;18.30;99.90
18950;DHT22;9608;49.288;8.130;2023-03-22T13:36:31;18.10;99.90
18950;DHT22;9608;49.288;8.130;2023-03-22T13:38:59;18.20;99.90
18950;DHT22;9608;49.288;8.130;2023-03-22T13:41:30;18.30;99.90
18950;DHT22;9608;49.288;8.130;2023-03-22T13:43:59;18.40;99.90
18950;DHT22;9608;49.288;8.130;2023-03-22T13:46:42;18.60;99.90
18950;DHT22;9608;49.288;8.130;2023-03-22T13:49:27;18.60;99.90
18950;DHT22;9608;49.288;8.130;2023-03-22T13:52:00;18.80;99.90
18950;DHT22;9608;49.288;8.130;2023-03-22T13:54:39;19.00;99.90
18950;DHT22;9608;49.288;8.130;2023-03-22T13:57:15;19.20;99.90
18950;DHT22;9608;49.288;8.130;2023-03-22T14:00:05;19.20;99.90
18950;DHT22;9608;49.288;8.130;2023-03-22T14:02:42;19.10;99.90
18950;DHT22;9608;49.288;8.130;2023-03-22T14:05:14;19.20;99.90
18950;DHT22;9608;49.288;8.130;2023-03-22T14:07:45;19.10;99.90
18950;DHT22;9608;49.288;8.130;2023-03-22T14:10:15;19.10;99.90
18950;DHT22;9608;49.288;8.130;2023-03-22T14:12:49;19.00;99.90
18950;DHT22;9608;49.288;8.130;2023-03-22T14:15:20;18.80;99.90
18950;DHT22;9608;49.288;8.130;2023-03-22T14:17:49;18.90;99.90
18950;DHT22;9608;49.288;8.130;2023-03-22T14:20:21;19.10;99.90
18950;DHT22;9608;49.288;8.130;2023-03-22T14:22:53;19.10;99.90
18950;DHT22;9608;49.288;8.130;2023-03-22T14:25:24;19.00;99.90
18950;DHT22;9608;49.288;8.130;2023-03-22T14:27:51;19.10;99.90
18950;DHT22;9608;49.288;8.130;2023-03-22T14:30:25;19.20;99.90
18950;DHT22;9608;49.288;8.130;2023-03-22T14:32:54;19.30;99.90
18950;DHT22;9608;49.288;8.130;2023-03-22T14:35:27;19.20;99.90
18950;DHT22;9608;49.288;8.130;2023-03-22T14:38:00;19.20;99.90
18950;DHT22;9608;49.288;8.130;2023-03-22T14:40:29;19.10;99.90
18950;DHT22;9608;49.288;8.130;2023-03-22T14:43:11;18.80;99.90
18950;DHT22;9608;49.288;8.130;2023-03-22T14:45:38;18.50;99.90
18950;DHT22;9608;49.288;8.130;2023-03-22T14:48:12;18.30;99.90
18950;DHT22;9608;49.288;8.130;2023-03-22T14:50:44;18.40;99.90
18950;DHT22;9608;49.288;8.130;2023-03-22T14:53:17;18.60;99.90
18950;DHT22;9608;49.288;8.130;2023-03-22T14:55:47;18.60;99.90
18950;DHT22;9608;49.288;8.130;2023-03-22T14:58:16;18.60;99.90
18950;DHT22;9608;49.288;8.130;2023-03-22T15:00:45;18.60;99.90
18950;DHT22;9608;49.288;8.130;2023-03-22T15:03:16;18.60;99.90
18950;DHT22;9608;49.288;8.130;2023-03-22T15:05:48;18.40;99.90
18950;DHT22;9608;49.288;8.130;2023-03-22T15:08:23;18.40;99.90
18950;DHT22;9608;49.288;8.130;2023-03-22T15:10:53;18.40;99.90
18950;DHT22;9608;49.288;8.130;2023-03-22T15:13:20;18.30;99.90
18950;DHT22;9608;49.288;8.130;2023-03-22T15:15:48;18.40;99.90
18950;DHT22;9608;49.288;8.130;2023-03-22T15:18:18;18.50;99.90
18950;DHT22;9608;49.288;8.130;2023-03-22T15:20:46;18.70;99.90
18950;DHT22;9608;49.288;8.130;2023-03-22T15:23:19;18.70;99.90
18950;DHT22;9608;49.288;8.130;2023-03-22T15:25:50;18.70;99.90
18950;DHT22;9608;49.288;8.130;2023-03-22T15:28:24;18.70;99.90
18950;DHT22;9608;49.288;8.130;2023-03-22T15:30:52;18.70;99.90
18950;DHT22;9608;49.288;8.130;2023-03-22T15:33:21;18.70;99.90
18950;DHT22;9608;49.288;8.130;2023-03-22T15:35:49;18.50;99.90
18950;DHT22;9608;49.288;8.130;2023-03-22T15:38:25;18.40;99.90
18950;DHT22;9608;49.288;8.130;2023-03-22T15:40:54;18.40;99.90
18950;DHT22;9608;49.288;8.130;2023-03-22T15:43:27;18.20;99.90
18950;DHT22;9608;49.288;8.130;2023-03-22T15:46:17;18.20;99.90
18950;DHT22;9608;49.288;8.130;2023-03-22T15:48:46;18.10;99.90
18950;DHT22;9608;49.288;8.130;2023-03-22T15:51:15;18.10;99.90
18950;DHT22;9608;49.288;8.130;2023-03-22T15:53:44;18.00;99.90
18950;DHT22;9608;49.288;8.130;2023-03-22T15:56:23;17.90;99.90
18950;DHT22;9608;49.288;8.130;2023-03-22T15:58:53;17.90;99.90
18950;DHT22;9608;49.288;8.130;2023-03-22T16:01:20;18.00;99.90
18950;DHT22;9608;49.288;8.130;2023-03-22T16:03:50;17.90;99.90
18950;DHT22;9608;49.288;8.130;2023-03-22T16:06:19;17.90;99.90
18950;DHT22;9608;49.288;8.130;2023-03-22T16:08:46;18.00;99.90
18950;DHT22;9608;49.288;8.130;2023-03-22T16:11:13;17.90;99.90
18950;DHT22;9608;49.288;8.130;2023-03-22T16:13:43;17.80;99.90
18950;DHT22;9608;49.288;8.130;2023-03-22T16:16:12;17.60;99.90
18950;DHT22;9608;49.288;8.130;2023-03-22T16:18:39;17.60;99.90
18950;DHT22;9608;49.288;8.130;2023-03-22T16:21:08;17.60;99.90